sensor_id;sensor_type;location;lat;lon;timestamp;P1;durP1;ratioP1;P2;durP2;ratioP2
15240;SDS011;7723;52.170;9.978;2022-10-16T00:01:26;1.63;;;1.50;;
15240;SDS011;7723;52.170;9.978;2022-10-16T00:03:55;2.00;;;1.40;;
15240;SDS011;7723;52.170;9.978;2022-10-16T00:06:23;1.90;;;1.42;;
15240;SDS011;7723;52.170;9.978;2022-10-16T00:08:50;2.75;;;1.80;;
15240;SDS011;7723;52.170;9.978;2022-10-16T00:11:19;1.92;;;1.70;;
15240;SDS011;7723;52.170;9.978;2022-10-16T00:13:49;2.22;;;1.50;;
15240;SDS011;7723;52.170;9.978;2022-10-16T00:16:18;1.80;;;1.58;;
15240;SDS011;7723;52.170;9.978;2022-10-16T00:18:45;2.75;;;1.67;;
15240;SDS011;7723;52.170;9.978;2022-10-16T00:21:13;2.53;;;1.63;;
15240;SDS011;7723;52.170;9.978;2022-10-16T00:23:42;2.45;;;2.17;;
15240;SDS011;7723;52.170;9.978;2022-10-16T00:26:11;3.78;;;2.35;;
15240;SDS011;7723;52.170;9.978;2022-10-16T00:28:40;3.42;;;2.70;;
15240;SDS011;7723;52.170;9.978;2022-10-16T00:31:09;3.88;;;3.17;;
15240;SDS011;7723;52.170;9.978;2022-10-16T00:33:38;6.00;;;3.90;;
15240;SDS011;7723;52.170;9.978;2022-10-16T00:36:06;4.30;;;3.90;;
15240;SDS011;7723;52.170;9.978;2022-10-16T00:38:35;4.50;;;2.90;;
15240;SDS011;7723;52.170;9.978;2022-10-16T00:41:03;4.75;;;3.42;;
15240;SDS011;7723;52.170;9.978;2022-10-16T00:43:32;3.75;;;3.38;;
15240;SDS011;7723;52.170;9.978;2022-10-16T00:46:02;3.17;;;2.33;;
15240;SDS011;7723;52.170;9.978;2022-10-16T00:48:33;4.53;;;2.67;;
15240;SDS011;7723;52.170;9.978;2022-10-16T00:51:00;2.60;;;2.40;;
15240;SDS011;7723;52.170;9.978;2022-10-16T00:53:28;3.60;;;2.40;;
15240;SDS011;7723;52.170;9.978;2022-10-16T00:55:55;5.00;;;2.83;;
15240;SDS011;7723;52.170;9.978;2022-10-16T00:58:22;3.13;;;1.92;;
15240;SDS011;7723;52.170;9.978;2022-10-16T01:00:49;4.35;;;2.10;;
15240;SDS011;7723;52.170;9.978;2022-10-16T01:03:23;5.68;;;1.92;;
15240;SDS011;7723;52.170;9.978;2022-10-16T01:05:58;3.47;;;2.45;;
15240;SDS011;7723;52.170;9.978;2022-10-16T01:08:34;3.30;;;2.13;;
15240;SDS011;7723;52.170;9.978;2022-10-16T01:11:12;3.38;;;1.90;;
15240;SDS011;7723;52.170;9.978;2022-10-16T01:13:46;3.83;;;2.03;;
15240;SDS011;7723;52.170;9.978;2022-10-16T01:16:20;2.13;;;1.83;;
15240;SDS011;7723;52.170;9.978;2022-10-16T01:18:56;2.03;;;1.80;;
15240;SDS011;7723;52.170;9.978;2022-10-16T01:21:31;2.53;;;1.88;;
15240;SDS011;7723;52.170;9.978;2022-10-16T01:24:02;2.15;;;1.92;;
15240;SDS011;7723;52.170;9.978;2022-10-16T01:26:37;2.53;;;2.33;;
15240;SDS011;7723;52.170;9.978;2022-10-16T01:29:18;3.35;;;2.15;;
15240;SDS011;7723;52.170;9.978;2022-10-16T01:31:49;3.35;;;2.28;;
15240;SDS011;7723;52.170;9.978;2022-10-16T01:34:22;2.25;;;1.80;;
15240;SDS011;7723;52.170;9.978;2022-10-16T01:36:56;3.13;;;2.13;;
15240;SDS011;7723;52.170;9.978;2022-10-16T01:39:32;2.58;;;1.70;;
15240;SDS011;7723;52.170;9.978;2022-10-16T01:42:04;2.30;;;2.00;;
15240;SDS011;7723;52.170;9.978;2022-10-16T01:44:36;2.97;;;1.77;;
15240;SDS011;7723;52.170;9.978;2022-10-16T01:47:05;3.08;;;1.63;;
15240;SDS011;7723;52.170;9.978;2022-10-16T01:49:34;2.25;;;1.83;;
15240;SDS011;7723;52.170;9.978;2022-10-16T01:52:07;3.75;;;2.22;;
15240;SDS011;7723;52.170;9.978;2022-10-16T01:54:37;5.22;;;2.10;;
15240;SDS011;7723;52.170;9.978;2022-10-16T01:57:07;5.40;;;1.90;;
15240;SDS011;7723;52.170;9.978;2022-10-16T01:59:40;3.13;;;2.13;;
15240;SDS011;7723;52.170;9.978;2022-10-16T02:02:10;2.28;;;2.00;;
15240;SDS011;7723;52.170;9.978;2022-10-16T02:04:40;2.30;;;1.90;;
15240;SDS011;7723;52.170;9.978;2022-10-16T02:07:11;2.58;;;1.90;;
15240;SDS011;7723;52.170;9.978;2022-10-16T02:09:39;4.30;;;1.70;;
15240;SDS011;7723;52.170;9.978;2022-10-16T02:12:09;2.00;;;1.60;;
15240;SDS011;7723;52.170;9.978;2022-10-16T02:14:40;3.13;;;2.20;;
15240;SDS011;7723;52.170;9.978;2022-10-16T02:17:11;2.58;;;1.80;;
15240;SDS011;7723;52.170;9.978;2022-10-16T02:19:40;3.08;;;2.13;;
15240;SDS011;7723;52.170;9.978;2022-10-16T02:22:09;2.92;;;2.10;;
15240;SDS011;7723;52.170;9.978;2022-10-16T02:24:42;4.90;;;2.05;;
15240;SDS011;7723;52.170;9.978;2022-10-16T02:27:17;2.47;;;1.58;;
15240;SDS011;7723;52.170;9.978;2022-10-16T02:29:52;10.68;;;2.47;;
15240;SDS011;7723;52.170;9.978;2022-10-16T02:32:24;3.10;;;2.20;;
15240;SDS011;7723;52.170;9.978;2022-10-16T02:34:56;3.15;;;2.25;;
15240;SDS011;7723;52.170;9.978;2022-10-16T02:37:24;2.00;;;1.75;;
15240;SDS011;7723;52.170;9.978;2022-10-16T02:39:51;5.88;;;2.65;;
15240;SDS011;7723;52.170;9.978;2022-10-16T02:42:20;4.28;;;1.80;;
15240;SDS011;7723;52.170;9.978;2022-10-16T02:44:47;3.53;;;1.70;;
15240;SDS011;7723;52.170;9.978;2022-10-16T02:47:15;6.80;;;1.73;;
15240;SDS011;7723;52.170;9.978;2022-10-16T02:49:43;3.45;;;1.58;;
15240;SDS011;7723;52.170;9.978;2022-10-16T02:52:10;2.28;;;1.80;;
15240;SDS011;7723;52.170;9.978;2022-10-16T02:54:37;5.47;;;2.70;;
15240;SDS011;7723;52.170;9.978;2022-10-16T02:57:04;3.72;;;2.15;;
15240;SDS011;7723;52.170;9.978;2022-10-16T02:59:31;3.25;;;2.10;;
15240;SDS011;7723;52.170;9.978;2022-10-16T03:01:58;3.25;;;2.60;;
15240;SDS011;7723;52.170;9.978;2022-10-16T03:04:27;3.30;;;2.20;;
15240;SDS011;7723;52.170;9.978;2022-10-16T03:06:54;4.10;;;2.25;;
15240;SDS011;7723;52.170;9.978;2022-10-16T03:09:21;3.95;;;2.30;;
15240;SDS011;7723;52.170;9.978;2022-10-16T03:11:48;3.28;;;2.00;;
15240;SDS011;7723;52.170;9.978;2022-10-16T03:14:15;4.28;;;2.22;;
15240;SDS011;7723;52.170;9.978;2022-10-16T03:16:43;5.50;;;2.20;;
15240;SDS011;7723;52.170;9.978;2022-10-16T03:19:10;5.07;;;2.88;;
15240;SDS011;7723;52.170;9.978;2022-10-16T03:21:38;5.20;;;2.42;;
15240;SDS011;7723;52.170;9.978;2022-10-16T03:24:05;2.70;;;2.20;;
15240;SDS011;7723;52.170;9.978;2022-10-16T03:26:33;4.28;;;2.53;;
15240;SDS011;7723;52.170;9.978;2022-10-16T03:29:00;3.45;;;2.53;;
15240;SDS011;7723;52.170;9.978;2022-10-16T03:31:28;2.83;;;2.47;;
15240;SDS011;7723;52.170;9.978;2022-10-16T03:33:55;3.38;;;2.60;;
15240;SDS011;7723;52.170;9.978;2022-10-16T03:36:23;7.43;;;2.30;;
15240;SDS011;7723;52.170;9.978;2022-10-16T03:38:51;3.15;;;2.50;;
15240;SDS011;7723;52.170;9.978;2022-10-16T03:41:18;3.75;;;2.28;;
15240;SDS011;7723;52.170;9.978;2022-10-16T03:43:46;4.20;;;2.63;;
15240;SDS011;7723;52.170;9.978;2022-10-16T03:46:13;5.05;;;2.17;;
15240;SDS011;7723;52.170;9.978;2022-10-16T03:48:40;3.13;;;2.45;;
15240;SDS011;7723;52.170;9.978;2022-10-16T03:51:07;4.28;;;2.72;;
15240;SDS011;7723;52.170;9.978;2022-10-16T03:53:34;5.13;;;2.67;;
15240;SDS011;7723;52.170;9.978;2022-10-16T03:56:03;4.75;;;2.72;;
15240;SDS011;7723;52.170;9.978;2022-10-16T03:58:30;5.68;;;2.60;;
15240;SDS011;7723;52.170;9.978;2022-10-16T04:00:57;3.13;;;2.60;;
15240;SDS011;7723;52.170;9.978;2022-10-16T04:03:24;3.50;;;2.45;;
15240;SDS011;7723;52.170;9.978;2022-10-16T04:05:51;3.65;;;2.38;;
15240;SDS011;7723;52.170;9.978;2022-10-16T04:08:19;4.18;;;2.63;;
15240;SDS011;7723;52.170;9.978;2022-10-16T04:10:46;4.70;;;2.58;;
15240;SDS011;7723;52.170;9.978;2022-10-16T04:13:14;5.55;;;2.45;;
15240;SDS011;7723;52.170;9.978;2022-10-16T04:15:41;5.13;;;2.80;;
15240;SDS011;7723;52.170;9.978;2022-10-16T04:18:09;3.83;;;2.60;;
15240;SDS011;7723;52.170;9.978;2022-10-16T04:20:36;2.85;;;2.35;;
15240;SDS011;7723;52.170;9.978;2022-10-16T04:23:03;3.85;;;2.75;;
15240;SDS011;7723;52.170;9.978;2022-10-16T04:25:30;3.10;;;2.35;;
15240;SDS011;7723;52.170;9.978;2022-10-16T04:27:58;3.92;;;2.75;;
15240;SDS011;7723;52.170;9.978;2022-10-16T04:30:26;5.25;;;2.63;;
15240;SDS011;7723;52.170;9.978;2022-10-16T04:32:53;4.43;;;2.42;;
15240;SDS011;7723;52.170;9.978;2022-10-16T04:35:21;5.50;;;2.83;;
15240;SDS011;7723;52.170;9.978;2022-10-16T04:37:48;4.63;;;3.03;;
15240;SDS011;7723;52.170;9.978;2022-10-16T04:40:16;4.00;;;2.85;;
15240;SDS011;7723;52.170;9.978;2022-10-16T04:42:44;4.38;;;3.30;;
15240;SDS011;7723;52.170;9.978;2022-10-16T04:45:11;3.67;;;2.58;;
15240;SDS011;7723;52.170;9.978;2022-10-16T04:47:39;5.82;;;2.90;;
15240;SDS011;7723;52.170;9.978;2022-10-16T04:50:07;3.53;;;2.90;;
15240;SDS011;7723;52.170;9.978;2022-10-16T04:52:34;7.40;;;2.70;;
15240;SDS011;7723;52.170;9.978;2022-10-16T04:55:01;3.88;;;2.80;;
15240;SDS011;7723;52.170;9.978;2022-10-16T04:57:29;3.67;;;2.50;;
15240;SDS011;7723;52.170;9.978;2022-10-16T04:59:56;4.72;;;2.50;;
15240;SDS011;7723;52.170;9.978;2022-10-16T05:02:23;3.03;;;2.72;;
15240;SDS011;7723;52.170;9.978;2022-10-16T05:04:52;3.15;;;2.85;;
15240;SDS011;7723;52.170;9.978;2022-10-16T05:07:19;6.00;;;2.90;;
15240;SDS011;7723;52.170;9.978;2022-10-16T05:09:46;3.42;;;2.58;;
15240;SDS011;7723;52.170;9.978;2022-10-16T05:12:13;4.05;;;2.67;;
15240;SDS011;7723;52.170;9.978;2022-10-16T05:14:40;4.55;;;3.35;;
15240;SDS011;7723;52.170;9.978;2022-10-16T05:17:08;4.10;;;2.67;;
15240;SDS011;7723;52.170;9.978;2022-10-16T05:19:35;5.95;;;2.63;;
15240;SDS011;7723;52.170;9.978;2022-10-16T05:22:03;5.18;;;2.95;;
15240;SDS011;7723;52.170;9.978;2022-10-16T05:24:30;4.63;;;2.88;;
15240;SDS011;7723;52.170;9.978;2022-10-16T05:26:58;4.22;;;2.22;;
15240;SDS011;7723;52.170;9.978;2022-10-16T05:29:25;6.93;;;2.38;;
15240;SDS011;7723;52.170;9.978;2022-10-16T05:31:52;4.43;;;2.38;;
15240;SDS011;7723;52.170;9.978;2022-10-16T05:34:20;3.40;;;2.78;;
15240;SDS011;7723;52.170;9.978;2022-10-16T05:36:47;5.93;;;2.55;;
15240;SDS011;7723;52.170;9.978;2022-10-16T05:39:16;2.92;;;2.53;;
15240;SDS011;7723;52.170;9.978;2022-10-16T05:41:44;3.85;;;2.10;;
15240;SDS011;7723;52.170;9.978;2022-10-16T05:44:11;2.97;;;2.00;;
15240;SDS011;7723;52.170;9.978;2022-10-16T05:46:39;4.63;;;2.05;;
15240;SDS011;7723;52.170;9.978;2022-10-16T05:49:06;2.47;;;2.28;;
15240;SDS011;7723;52.170;9.978;2022-10-16T05:51:33;3.28;;;2.28;;
15240;SDS011;7723;52.170;9.978;2022-10-16T05:54:00;3.22;;;2.72;;
15240;SDS011;7723;52.170;9.978;2022-10-16T05:56:28;3.90;;;3.50;;
15240;SDS011;7723;52.170;9.978;2022-10-16T05:58:56;3.20;;;2.40;;
15240;SDS011;7723;52.170;9.978;2022-10-16T06:01:23;2.88;;;2.53;;
15240;SDS011;7723;52.170;9.978;2022-10-16T06:03:50;3.08;;;2.13;;
15240;SDS011;7723;52.170;9.978;2022-10-16T06:06:18;3.72;;;2.20;;
15240;SDS011;7723;52.170;9.978;2022-10-16T06:08:47;3.20;;;2.28;;
15240;SDS011;7723;52.170;9.978;2022-10-16T06:11:16;3.78;;;2.38;;
15240;SDS011;7723;52.170;9.978;2022-10-16T06:13:48;3.67;;;2.10;;
15240;SDS011;7723;52.170;9.978;2022-10-16T06:16:16;3.50;;;2.78;;
15240;SDS011;7723;52.170;9.978;2022-10-16T06:18:43;4.65;;;2.55;;
15240;SDS011;7723;52.170;9.978;2022-10-16T06:21:12;2.72;;;2.40;;
15240;SDS011;7723;52.170;9.978;2022-10-16T06:23:42;3.03;;;2.72;;
15240;SDS011;7723;52.170;9.978;2022-10-16T06:26:11;4.13;;;2.50;;
15240;SDS011;7723;52.170;9.978;2022-10-16T06:28:40;6.05;;;2.88;;
15240;SDS011;7723;52.170;9.978;2022-10-16T06:31:09;4.43;;;2.35;;
15240;SDS011;7723;52.170;9.978;2022-10-16T06:33:37;4.35;;;2.15;;
15240;SDS011;7723;52.170;9.978;2022-10-16T06:36:06;4.82;;;2.42;;
15240;SDS011;7723;52.170;9.978;2022-10-16T06:38:36;3.13;;;1.90;;
15240;SDS011;7723;52.170;9.978;2022-10-16T06:41:04;2.78;;;2.22;;
15240;SDS011;7723;52.170;9.978;2022-10-16T06:43:32;3.33;;;2.10;;
15240;SDS011;7723;52.170;9.978;2022-10-16T06:46:01;3.45;;;2.03;;
15240;SDS011;7723;52.170;9.978;2022-10-16T06:48:30;2.67;;;1.80;;
15240;SDS011;7723;52.170;9.978;2022-10-16T06:50:58;2.10;;;1.90;;
15240;SDS011;7723;52.170;9.978;2022-10-16T06:53:26;2.38;;;1.80;;
15240;SDS011;7723;52.170;9.978;2022-10-16T06:55:54;1.90;;;1.70;;
15240;SDS011;7723;52.170;9.978;2022-10-16T06:58:22;2.03;;;1.50;;
15240;SDS011;7723;52.170;9.978;2022-10-16T07:00:54;1.80;;;1.70;;
15240;SDS011;7723;52.170;9.978;2022-10-16T07:03:23;1.92;;;1.60;;
15240;SDS011;7723;52.170;9.978;2022-10-16T07:05:51;1.77;;;1.30;;
15240;SDS011;7723;52.170;9.978;2022-10-16T07:08:19;2.00;;;1.38;;
15240;SDS011;7723;52.170;9.978;2022-10-16T07:10:46;1.98;;;1.40;;
15240;SDS011;7723;52.170;9.978;2022-10-16T07:13:13;2.28;;;1.15;;
15240;SDS011;7723;52.170;9.978;2022-10-16T07:15:40;1.45;;;1.20;;
15240;SDS011;7723;52.170;9.978;2022-10-16T07:18:07;1.80;;;1.30;;
15240;SDS011;7723;52.170;9.978;2022-10-16T07:20:35;1.45;;;1.20;;
15240;SDS011;7723;52.170;9.978;2022-10-16T07:23:04;2.15;;;1.10;;
15240;SDS011;7723;52.170;9.978;2022-10-16T07:25:31;4.65;;;1.10;;
15240;SDS011;7723;52.170;9.978;2022-10-16T07:27:58;0.85;;;0.85;;
15240;SDS011;7723;52.170;9.978;2022-10-16T07:30:25;1.27;;;1.00;;
15240;SDS011;7723;52.170;9.978;2022-10-16T07:32:52;2.20;;;1.15;;
15240;SDS011;7723;52.170;9.978;2022-10-16T07:35:19;1.10;;;1.00;;
15240;SDS011;7723;52.170;9.978;2022-10-16T07:37:46;1.20;;;1.00;;
15240;SDS011;7723;52.170;9.978;2022-10-16T07:40:15;2.67;;;1.00;;
15240;SDS011;7723;52.170;9.978;2022-10-16T07:42:43;1.20;;;0.80;;
15240;SDS011;7723;52.170;9.978;2022-10-16T07:45:10;1.08;;;0.98;;
15240;SDS011;7723;52.170;9.978;2022-10-16T07:47:38;2.22;;;0.90;;
15240;SDS011;7723;52.170;9.978;2022-10-16T07:50:05;1.40;;;0.90;;
15240;SDS011;7723;52.170;9.978;2022-10-16T07:52:32;0.80;;;0.80;;
15240;SDS011;7723;52.170;9.978;2022-10-16T07:54:59;2.22;;;0.80;;
15240;SDS011;7723;52.170;9.978;2022-10-16T07:57:28;2.03;;;0.90;;
15240;SDS011;7723;52.170;9.978;2022-10-16T07:59:55;2.00;;;0.85;;
15240;SDS011;7723;52.170;9.978;2022-10-16T08:02:22;0.98;;;0.80;;
15240;SDS011;7723;52.170;9.978;2022-10-16T08:04:49;0.95;;;0.80;;
15240;SDS011;7723;52.170;9.978;2022-10-16T08:07:16;2.20;;;0.88;;
15240;SDS011;7723;52.170;9.978;2022-10-16T08:09:43;0.80;;;0.73;;
15240;SDS011;7723;52.170;9.978;2022-10-16T08:12:11;1.58;;;0.98;;
15240;SDS011;7723;52.170;9.978;2022-10-16T08:14:39;2.05;;;1.10;;
15240;SDS011;7723;52.170;9.978;2022-10-16T08:17:06;0.80;;;0.80;;
15240;SDS011;7723;52.170;9.978;2022-10-16T08:19:33;1.40;;;0.60;;
15240;SDS011;7723;52.170;9.978;2022-10-16T08:22:00;0.95;;;0.85;;
15240;SDS011;7723;52.170;9.978;2022-10-16T08:24:27;2.92;;;0.88;;
15240;SDS011;7723;52.170;9.978;2022-10-16T08:26:56;1.33;;;0.77;;
15240;SDS011;7723;52.170;9.978;2022-10-16T08:29:23;0.70;;;0.70;;
15240;SDS011;7723;52.170;9.978;2022-10-16T08:31:52;1.45;;;0.80;;
15240;SDS011;7723;52.170;9.978;2022-10-16T08:34:19;1.63;;;0.90;;
15240;SDS011;7723;52.170;9.978;2022-10-16T08:36:46;1.23;;;0.60;;
15240;SDS011;7723;52.170;9.978;2022-10-16T08:39:13;3.97;;;0.80;;
15240;SDS011;7723;52.170;9.978;2022-10-16T08:42:00;0.95;;;0.80;;
15240;SDS011;7723;52.170;9.978;2022-10-16T08:44:44;1.58;;;0.63;;
15240;SDS011;7723;52.170;9.978;2022-10-16T08:47:34;1.42;;;0.80;;
15240;SDS011;7723;52.170;9.978;2022-10-16T08:50:09;1.10;;;0.65;;
15240;SDS011;7723;52.170;9.978;2022-10-16T08:52:42;0.60;;;0.60;;
15240;SDS011;7723;52.170;9.978;2022-10-16T08:55:17;0.80;;;0.80;;
15240;SDS011;7723;52.170;9.978;2022-10-16T08:57:55;1.10;;;0.77;;
15240;SDS011;7723;52.170;9.978;2022-10-16T09:00:22;0.88;;;0.77;;
15240;SDS011;7723;52.170;9.978;2022-10-16T09:02:53;2.65;;;1.52;;
15240;SDS011;7723;52.170;9.978;2022-10-16T09:08:23;1.23;;;1.00;;
15240;SDS011;7723;52.170;9.978;2022-10-16T09:10:58;0.93;;;0.68;;
15240;SDS011;7723;52.170;9.978;2022-10-16T09:13:33;1.80;;;0.77;;
15240;SDS011;7723;52.170;9.978;2022-10-16T09:16:09;1.05;;;0.73;;
15240;SDS011;7723;52.170;9.978;2022-10-16T09:18:44;2.40;;;0.80;;
15240;SDS011;7723;52.170;9.978;2022-10-16T09:21:18;0.75;;;0.65;;
15240;SDS011;7723;52.170;9.978;2022-10-16T09:23:49;1.13;;;0.73;;
15240;SDS011;7723;52.170;9.978;2022-10-16T09:26:17;1.10;;;0.82;;
15240;SDS011;7723;52.170;9.978;2022-10-16T09:28:47;0.57;;;0.57;;
15240;SDS011;7723;52.170;9.978;2022-10-16T09:31:17;1.15;;;0.90;;
15240;SDS011;7723;52.170;9.978;2022-10-16T09:33:48;0.70;;;0.70;;
15240;SDS011;7723;52.170;9.978;2022-10-16T09:36:20;1.30;;;0.90;;
15240;SDS011;7723;52.170;9.978;2022-10-16T09:38:49;2.67;;;0.93;;
15240;SDS011;7723;52.170;9.978;2022-10-16T09:41:19;1.30;;;0.70;;
15240;SDS011;7723;52.170;9.978;2022-10-16T09:43:52;1.15;;;0.95;;
15240;SDS011;7723;52.170;9.978;2022-10-16T09:46:22;0.82;;;0.73;;
15240;SDS011;7723;52.170;9.978;2022-10-16T09:48:56;0.95;;;0.70;;
15240;SDS011;7723;52.170;9.978;2022-10-16T09:51:25;1.42;;;0.85;;
15240;SDS011;7723;52.170;9.978;2022-10-16T09:53:55;0.90;;;0.55;;
15240;SDS011;7723;52.170;9.978;2022-10-16T09:56:25;1.00;;;0.60;;
15240;SDS011;7723;52.170;9.978;2022-10-16T09:58:55;0.70;;;0.68;;
15240;SDS011;7723;52.170;9.978;2022-10-16T10:01:24;0.98;;;0.75;;
15240;SDS011;7723;52.170;9.978;2022-10-16T10:03:58;1.88;;;0.60;;
15240;SDS011;7723;52.170;9.978;2022-10-16T10:06:28;1.23;;;0.70;;
15240;SDS011;7723;52.170;9.978;2022-10-16T10:08:59;0.70;;;0.60;;
15240;SDS011;7723;52.170;9.978;2022-10-16T10:11:43;3.40;;;0.70;;
15240;SDS011;7723;52.170;9.978;2022-10-16T10:14:20;1.08;;;0.60;;
15240;SDS011;7723;52.170;9.978;2022-10-16T10:16:50;2.13;;;0.60;;
15240;SDS011;7723;52.170;9.978;2022-10-16T10:19:20;0.70;;;0.50;;
15240;SDS011;7723;52.170;9.978;2022-10-16T10:21:48;0.98;;;0.55;;
15240;SDS011;7723;52.170;9.978;2022-10-16T10:24:17;1.20;;;0.77;;
15240;SDS011;7723;52.170;9.978;2022-10-16T10:26:50;4.68;;;0.73;;
15240;SDS011;7723;52.170;9.978;2022-10-16T10:29:31;1.73;;;0.50;;
15240;SDS011;7723;52.170;9.978;2022-10-16T10:32:11;0.65;;;0.50;;
15240;SDS011;7723;52.170;9.978;2022-10-16T10:34:50;0.70;;;0.60;;
15240;SDS011;7723;52.170;9.978;2022-10-16T10:37:31;2.85;;;0.68;;
15240;SDS011;7723;52.170;9.978;2022-10-16T10:40:15;2.60;;;0.73;;
15240;SDS011;7723;52.170;9.978;2022-10-16T10:42:51;2.08;;;0.75;;
15240;SDS011;7723;52.170;9.978;2022-10-16T10:45:26;0.88;;;0.60;;
15240;SDS011;7723;52.170;9.978;2022-10-16T10:48:04;1.42;;;0.65;;
15240;SDS011;7723;52.170;9.978;2022-10-16T10:50:41;2.00;;;0.50;;
15240;SDS011;7723;52.170;9.978;2022-10-16T10:53:24;1.08;;;0.68;;
15240;SDS011;7723;52.170;9.978;2022-10-16T10:56:03;0.90;;;0.50;;
15240;SDS011;7723;52.170;9.978;2022-10-16T10:59:00;1.33;;;0.73;;
15240;SDS011;7723;52.170;9.978;2022-10-16T11:01:35;1.92;;;0.50;;
15240;SDS011;7723;52.170;9.978;2022-10-16T11:04:14;0.90;;;0.60;;
15240;SDS011;7723;52.170;9.978;2022-10-16T11:06:58;0.70;;;0.60;;
15240;SDS011;7723;52.170;9.978;2022-10-16T11:09:30;1.98;;;1.02;;
15240;SDS011;7723;52.170;9.978;2022-10-16T11:12:02;4.13;;;0.80;;
15240;SDS011;7723;52.170;9.978;2022-10-16T11:14:39;1.13;;;0.80;;
15240;SDS011;7723;52.170;9.978;2022-10-16T11:17:11;1.70;;;0.60;;
15240;SDS011;7723;52.170;9.978;2022-10-16T11:19:44;1.88;;;0.60;;
15240;SDS011;7723;52.170;9.978;2022-10-16T11:22:18;1.05;;;0.52;;
15240;SDS011;7723;52.170;9.978;2022-10-16T11:24:51;1.70;;;0.77;;
15240;SDS011;7723;52.170;9.978;2022-10-16T11:27:22;1.23;;;0.70;;
15240;SDS011;7723;52.170;9.978;2022-10-16T11:29:55;1.67;;;0.52;;
15240;SDS011;7723;52.170;9.978;2022-10-16T11:32:28;0.55;;;0.50;;
15240;SDS011;7723;52.170;9.978;2022-10-16T11:35:02;4.22;;;1.00;;
15240;SDS011;7723;52.170;9.978;2022-10-16T11:37:39;1.60;;;0.60;;
15240;SDS011;7723;52.170;9.978;2022-10-16T11:40:14;1.33;;;0.60;;
15240;SDS011;7723;52.170;9.978;2022-10-16T11:42:48;3.20;;;0.90;;
15240;SDS011;7723;52.170;9.978;2022-10-16T11:45:24;1.02;;;0.70;;
15240;SDS011;7723;52.170;9.978;2022-10-16T11:47:58;0.80;;;0.45;;
15240;SDS011;7723;52.170;9.978;2022-10-16T11:50:32;0.70;;;0.52;;
15240;SDS011;7723;52.170;9.978;2022-10-16T11:53:08;0.60;;;0.50;;
15240;SDS011;7723;52.170;9.978;2022-10-16T11:55:43;1.73;;;0.73;;
15240;SDS011;7723;52.170;9.978;2022-10-16T11:58:13;1.30;;;0.57;;
15240;SDS011;7723;52.170;9.978;2022-10-16T12:00:46;0.68;;;0.60;;
15240;SDS011;7723;52.170;9.978;2022-10-16T12:03:20;1.65;;;0.60;;
15240;SDS011;7723;52.170;9.978;2022-10-16T12:05:55;1.02;;;0.50;;
15240;SDS011;7723;52.170;9.978;2022-10-16T12:08:34;0.60;;;0.43;;
15240;SDS011;7723;52.170;9.978;2022-10-16T12:11:09;0.93;;;0.50;;
15240;SDS011;7723;52.170;9.978;2022-10-16T12:13:48;1.33;;;0.57;;
15240;SDS011;7723;52.170;9.978;2022-10-16T12:16:22;2.75;;;0.57;;
15240;SDS011;7723;52.170;9.978;2022-10-16T12:19:02;0.88;;;0.38;;
15240;SDS011;7723;52.170;9.978;2022-10-16T12:21:37;1.48;;;0.70;;
15240;SDS011;7723;52.170;9.978;2022-10-16T12:24:06;1.65;;;0.70;;
15240;SDS011;7723;52.170;9.978;2022-10-16T12:26:46;3.15;;;0.60;;
15240;SDS011;7723;52.170;9.978;2022-10-16T12:29:18;0.63;;;0.60;;
15240;SDS011;7723;52.170;9.978;2022-10-16T12:31:53;0.77;;;0.60;;
15240;SDS011;7723;52.170;9.978;2022-10-16T12:34:22;0.73;;;0.47;;
15240;SDS011;7723;52.170;9.978;2022-10-16T12:36:53;1.35;;;0.55;;
15240;SDS011;7723;52.170;9.978;2022-10-16T12:39:24;0.65;;;0.47;;
15240;SDS011;7723;52.170;9.978;2022-10-16T12:42:01;1.98;;;0.55;;
15240;SDS011;7723;52.170;9.978;2022-10-16T12:44:32;0.30;;;0.30;;
15240;SDS011;7723;52.170;9.978;2022-10-16T12:46:59;1.00;;;0.60;;
15240;SDS011;7723;52.170;9.978;2022-10-16T12:49:31;1.27;;;0.50;;
15240;SDS011;7723;52.170;9.978;2022-10-16T12:52:03;0.98;;;0.40;;
15240;SDS011;7723;52.170;9.978;2022-10-16T12:54:34;0.57;;;0.50;;
15240;SDS011;7723;52.170;9.978;2022-10-16T12:57:09;0.50;;;0.32;;
15240;SDS011;7723;52.170;9.978;2022-10-16T12:59:50;0.80;;;0.40;;
15240;SDS011;7723;52.170;9.978;2022-10-16T13:02:41;1.05;;;0.40;;
15240;SDS011;7723;52.170;9.978;2022-10-16T13:05:32;0.57;;;0.50;;
15240;SDS011;7723;52.170;9.978;2022-10-16T13:08:18;1.05;;;0.55;;
15240;SDS011;7723;52.170;9.978;2022-10-16T13:11:00;2.53;;;0.98;;
15240;SDS011;7723;52.170;9.978;2022-10-16T13:13:36;0.50;;;0.40;;
15240;SDS011;7723;52.170;9.978;2022-10-16T13:16:14;1.45;;;0.52;;
15240;SDS011;7723;52.170;9.978;2022-10-16T13:18:50;0.65;;;0.50;;
15240;SDS011;7723;52.170;9.978;2022-10-16T13:21:30;1.13;;;0.43;;
15240;SDS011;7723;52.170;9.978;2022-10-16T13:24:08;3.33;;;0.65;;
15240;SDS011;7723;52.170;9.978;2022-10-16T13:26:48;0.95;;;0.47;;
15240;SDS011;7723;52.170;9.978;2022-10-16T13:29:21;2.47;;;0.93;;
15240;SDS011;7723;52.170;9.978;2022-10-16T13:31:49;0.60;;;0.50;;
15240;SDS011;7723;52.170;9.978;2022-10-16T13:34:22;0.95;;;0.52;;
15240;SDS011;7723;52.170;9.978;2022-10-16T13:36:50;1.85;;;0.63;;
15240;SDS011;7723;52.170;9.978;2022-10-16T13:39:20;0.47;;;0.43;;
15240;SDS011;7723;52.170;9.978;2022-10-16T13:42:00;0.82;;;0.43;;
15240;SDS011;7723;52.170;9.978;2022-10-16T13:44:31;1.23;;;0.60;;
15240;SDS011;7723;52.170;9.978;2022-10-16T13:47:02;1.17;;;0.60;;
15240;SDS011;7723;52.170;9.978;2022-10-16T13:49:29;0.57;;;0.57;;
15240;SDS011;7723;52.170;9.978;2022-10-16T13:51:57;0.65;;;0.60;;
15240;SDS011;7723;52.170;9.978;2022-10-16T13:54:26;1.13;;;0.60;;
15240;SDS011;7723;52.170;9.978;2022-10-16T13:56:54;0.55;;;0.50;;
15240;SDS011;7723;52.170;9.978;2022-10-16T13:59:27;1.77;;;0.57;;
15240;SDS011;7723;52.170;9.978;2022-10-16T14:02:00;0.63;;;0.40;;
15240;SDS011;7723;52.170;9.978;2022-10-16T14:04:34;1.20;;;0.70;;
15240;SDS011;7723;52.170;9.978;2022-10-16T14:07:11;0.80;;;0.80;;
15240;SDS011;7723;52.170;9.978;2022-10-16T14:09:41;1.58;;;0.70;;
15240;SDS011;7723;52.170;9.978;2022-10-16T14:12:09;0.50;;;0.50;;
15240;SDS011;7723;52.170;9.978;2022-10-16T14:14:42;0.68;;;0.60;;
15240;SDS011;7723;52.170;9.978;2022-10-16T14:17:14;1.73;;;0.40;;
15240;SDS011;7723;52.170;9.978;2022-10-16T14:19:45;0.60;;;0.60;;
15240;SDS011;7723;52.170;9.978;2022-10-16T14:22:23;1.13;;;0.60;;
15240;SDS011;7723;52.170;9.978;2022-10-16T14:24:54;0.70;;;0.60;;
15240;SDS011;7723;52.170;9.978;2022-10-16T14:27:24;1.02;;;0.70;;
15240;SDS011;7723;52.170;9.978;2022-10-16T14:30:08;0.80;;;0.50;;
15240;SDS011;7723;52.170;9.978;2022-10-16T14:32:52;1.83;;;0.52;;
15240;SDS011;7723;52.170;9.978;2022-10-16T14:35:28;0.50;;;0.50;;
15240;SDS011;7723;52.170;9.978;2022-10-16T14:37:58;0.50;;;0.50;;
15240;SDS011;7723;52.170;9.978;2022-10-16T14:40:27;0.60;;;0.47;;
15240;SDS011;7723;52.170;9.978;2022-10-16T14:42:56;0.75;;;0.50;;
15240;SDS011;7723;52.170;9.978;2022-10-16T14:45:26;0.65;;;0.40;;
15240;SDS011;7723;52.170;9.978;2022-10-16T14:47:55;1.13;;;0.70;;
15240;SDS011;7723;52.170;9.978;2022-10-16T14:50:24;0.85;;;0.47;;
15240;SDS011;7723;52.170;9.978;2022-10-16T14:52:51;3.15;;;0.70;;
15240;SDS011;7723;52.170;9.978;2022-10-16T14:55:18;0.70;;;0.60;;
15240;SDS011;7723;52.170;9.978;2022-10-16T14:57:46;1.40;;;0.77;;
15240;SDS011;7723;52.170;9.978;2022-10-16T15:00:15;3.35;;;0.88;;
15240;SDS011;7723;52.170;9.978;2022-10-16T15:02:48;1.33;;;0.60;;
15240;SDS011;7723;52.170;9.978;2022-10-16T15:05:16;1.50;;;0.80;;
15240;SDS011;7723;52.170;9.978;2022-10-16T15:07:44;1.02;;;0.70;;
15240;SDS011;7723;52.170;9.978;2022-10-16T15:10:12;3.35;;;0.70;;
15240;SDS011;7723;52.170;9.978;2022-10-16T15:12:40;2.15;;;0.85;;
15240;SDS011;7723;52.170;9.978;2022-10-16T15:15:30;0.73;;;0.60;;
15240;SDS011;7723;52.170;9.978;2022-10-16T15:18:02;1.15;;;0.70;;
15240;SDS011;7723;52.170;9.978;2022-10-16T15:20:30;0.90;;;0.70;;
15240;SDS011;7723;52.170;9.978;2022-10-16T15:22:59;1.88;;;0.70;;
15240;SDS011;7723;52.170;9.978;2022-10-16T15:25:30;1.55;;;0.70;;